sensor_id;sensor_type;location;lat;lon;timestamp;P1;durP1;ratioP1;P2;durP2;ratioP2
4055;SDS011;2043;52.184;8.690;2023-04-03T00:02:00;6.00;;;2.30;;
4055;SDS011;2043;52.184;8.690;2023-04-03T00:04:27;8.17;;;2.37;;
4055;SDS011;2043;52.184;8.690;2023-04-03T00:06:54;6.13;;;2.10;;
4055;SDS011;2043;52.184;8.690;2023-04-03T00:09:21;8.83;;;2.60;;
4055;SDS011;2043;52.184;8.690;2023-04-03T00:11:48;5.90;;;2.00;;
4055;SDS011;2043;52.184;8.690;2023-04-03T00:14:14;7.23;;;2.10;;
4055;SDS011;2043;52.184;8.690;2023-04-03T00:16:41;5.40;;;2.07;;
4055;SDS011;2043;52.184;8.690;2023-04-03T00:19:08;8.03;;;2.80;;
4055;SDS011;2043;52.184;8.690;2023-04-03T00:21:38;6.60;;;2.30;;
4055;SDS011;2043;52.184;8.690;2023-04-03T00:24:05;5.43;;;1.90;;
4055;SDS011;2043;52.184;8.690;2023-04-03T00:26:32;8.47;;;2.17;;
4055;SDS011;2043;52.184;8.690;2023-04-03T00:28:59;10.77;;;2.57;;
4055;SDS011;2043;52.184;8.690;2023-04-03T00:31:26;6.57;;;2.40;;
4055;SDS011;2043;52.184;8.690;2023-04-03T00:33:53;5.43;;;1.83;;
4055;SDS011;2043;52.184;8.690;2023-04-03T00:36:20;7.03;;;2.57;;
4055;SDS011;2043;52.184;8.690;2023-04-03T00:38:46;8.70;;;2.73;;
4055;SDS011;2043;52.184;8.690;2023-04-03T00:41:13;9.07;;;2.20;;
4055;SDS011;2043;52.184;8.690;2023-04-03T00:43:40;8.60;;;2.23;;
4055;SDS011;2043;52.184;8.690;2023-04-03T00:46:07;7.27;;;2.00;;
4055;SDS011;2043;52.184;8.690;2023-04-03T00:48:35;6.63;;;2.00;;
4055;SDS011;2043;52.184;8.690;2023-04-03T00:51:07;8.57;;;2.53;;
4055;SDS011;2043;52.184;8.690;2023-04-03T00:53:49;5.60;;;2.30;;
4055;SDS011;2043;52.184;8.690;2023-04-03T00:56:19;6.13;;;2.30;;
4055;SDS011;2043;52.184;8.690;2023-04-03T00:58:57;11.20;;;2.87;;
4055;SDS011;2043;52.184;8.690;2023-04-03T01:01:30;6.07;;;2.20;;
4055;SDS011;2043;52.184;8.690;2023-04-03T01:03:58;6.70;;;2.03;;
4055;SDS011;2043;52.184;8.690;2023-04-03T01:06:27;10.60;;;2.50;;
4055;SDS011;2043;52.184;8.690;2023-04-03T01:08:58;7.47;;;2.47;;
4055;SDS011;2043;52.184;8.690;2023-04-03T01:11:26;12.23;;;2.63;;
4055;SDS011;2043;52.184;8.690;2023-04-03T01:13:53;10.23;;;2.07;;
4055;SDS011;2043;52.184;8.690;2023-04-03T01:16:19;9.77;;;2.70;;
4055;SDS011;2043;52.184;8.690;2023-04-03T01:18:47;6.80;;;2.07;;
4055;SDS011;2043;52.184;8.690;2023-04-03T01:23:47;6.53;;;2.53;;
4055;SDS011;2043;52.184;8.690;2023-04-03T01:26:17;11.17;;;2.60;;
4055;SDS011;2043;52.184;8.690;2023-04-03T01:28:44;9.60;;;2.90;;
4055;SDS011;2043;52.184;8.690;2023-04-03T01:31:55;5.07;;;2.37;;
4055;SDS011;2043;52.184;8.690;2023-04-03T01:34:02;9.17;;;2.33;;
4055;SDS011;2043;52.184;8.690;2023-04-03T01:36:29;9.20;;;2.80;;
4055;SDS011;2043;52.184;8.690;2023-04-03T01:38:58;4.70;;;2.20;;
4055;SDS011;2043;52.184;8.690;2023-04-03T01:41:26;5.63;;;2.10;;
4055;SDS011;2043;52.184;8.690;2023-04-03T01:43:53;6.67;;;2.57;;
4055;SDS011;2043;52.184;8.690;2023-04-03T01:46:20;5.70;;;2.07;;
4055;SDS011;2043;52.184;8.690;2023-04-03T01:48:48;6.47;;;2.20;;
4055;SDS011;2043;52.184;8.690;2023-04-03T01:51:15;6.30;;;2.33;;
4055;SDS011;2043;52.184;8.690;2023-04-03T01:53:42;7.10;;;2.50;;
4055;SDS011;2043;52.184;8.690;2023-04-03T01:56:09;12.63;;;3.03;;
4055;SDS011;2043;52.184;8.690;2023-04-03T01:58:36;10.77;;;3.10;;
4055;SDS011;2043;52.184;8.690;2023-04-03T02:01:03;6.50;;;2.67;;
4055;SDS011;2043;52.184;8.690;2023-04-03T02:03:30;7.47;;;2.77;;
4055;SDS011;2043;52.184;8.690;2023-04-03T02:05:57;8.93;;;3.40;;
4055;SDS011;2043;52.184;8.690;2023-04-03T02:08:24;8.10;;;3.20;;
4055;SDS011;2043;52.184;8.690;2023-04-03T02:10:51;9.50;;;3.63;;
4055;SDS011;2043;52.184;8.690;2023-04-03T02:13:18;7.80;;;3.40;;
4055;SDS011;2043;52.184;8.690;2023-04-03T02:15:45;9.33;;;3.47;;
4055;SDS011;2043;52.184;8.690;2023-04-03T02:18:13;9.57;;;3.33;;
4055;SDS011;2043;52.184;8.690;2023-04-03T02:20:39;11.50;;;3.33;;
4055;SDS011;2043;52.184;8.690;2023-04-03T02:23:06;8.63;;;3.50;;
4055;SDS011;2043;52.184;8.690;2023-04-03T02:25:33;17.67;;;4.00;;
4055;SDS011;2043;52.184;8.690;2023-04-03T02:28:03;10.10;;;3.70;;
4055;SDS011;2043;52.184;8.690;2023-04-03T02:30:30;12.23;;;4.00;;
4055;SDS011;2043;52.184;8.690;2023-04-03T02:32:57;11.50;;;4.23;;
4055;SDS011;2043;52.184;8.690;2023-04-03T02:35:24;14.40;;;4.27;;
4055;SDS011;2043;52.184;8.690;2023-04-03T02:37:51;8.90;;;3.87;;
4055;SDS011;2043;52.184;8.690;2023-04-03T02:40:18;9.10;;;4.13;;
4055;SDS011;2043;52.184;8.690;2023-04-03T02:42:45;18.57;;;7.03;;
4055;SDS011;2043;52.184;8.690;2023-04-03T02:45:11;23.40;;;7.50;;
4055;SDS011;2043;52.184;8.690;2023-04-03T02:47:38;21.97;;;6.43;;
4055;SDS011;2043;52.184;8.690;2023-04-03T02:50:05;19.63;;;6.50;;
4055;SDS011;2043;52.184;8.690;2023-04-03T02:52:32;17.33;;;5.67;;
4055;SDS011;2043;52.184;8.690;2023-04-03T02:54:59;10.20;;;3.30;;
4055;SDS011;2043;52.184;8.690;2023-04-03T02:57:26;14.07;;;4.33;;
4055;SDS011;2043;52.184;8.690;2023-04-03T02:59:53;8.13;;;3.60;;
4055;SDS011;2043;52.184;8.690;2023-04-03T03:02:20;7.97;;;3.67;;
4055;SDS011;2043;52.184;8.690;2023-04-03T03:04:47;8.43;;;3.70;;
4055;SDS011;2043;52.184;8.690;2023-04-03T03:07:14;7.83;;;3.37;;
4055;SDS011;2043;52.184;8.690;2023-04-03T03:09:41;15.03;;;5.07;;
4055;SDS011;2043;52.184;8.690;2023-04-03T03:12:08;9.20;;;4.47;;
4055;SDS011;2043;52.184;8.690;2023-04-03T03:14:35;9.40;;;3.17;;
4055;SDS011;2043;52.184;8.690;2023-04-03T03:17:02;15.87;;;3.63;;
4055;SDS011;2043;52.184;8.690;2023-04-03T03:19:28;9.13;;;2.93;;
4055;SDS011;2043;52.184;8.690;2023-04-03T03:21:55;10.37;;;3.17;;
4055;SDS011;2043;52.184;8.690;2023-04-03T03:24:23;9.83;;;2.90;;
4055;SDS011;2043;52.184;8.690;2023-04-03T03:26:50;9.23;;;2.40;;
4055;SDS011;2043;52.184;8.690;2023-04-03T03:29:17;8.77;;;3.33;;
4055;SDS011;2043;52.184;8.690;2023-04-03T03:31:44;8.40;;;2.53;;
4055;SDS011;2043;52.184;8.690;2023-04-03T03:34:11;9.17;;;2.83;;
4055;SDS011;2043;52.184;8.690;2023-04-03T03:36:39;16.03;;;2.67;;
4055;SDS011;2043;52.184;8.690;2023-04-03T03:39:05;11.23;;;3.30;;
4055;SDS011;2043;52.184;8.690;2023-04-03T03:41:33;7.83;;;2.70;;
4055;SDS011;2043;52.184;8.690;2023-04-03T03:43:59;9.60;;;3.20;;
4055;SDS011;2043;52.184;8.690;2023-04-03T03:46:26;7.80;;;2.37;;
4055;SDS011;2043;52.184;8.690;2023-04-03T03:48:53;9.10;;;2.50;;
4055;SDS011;2043;52.184;8.690;2023-04-03T03:51:20;6.07;;;2.07;;
4055;SDS011;2043;52.184;8.690;2023-04-03T03:53:47;7.63;;;2.73;;
4055;SDS011;2043;52.184;8.690;2023-04-03T03:56:14;6.97;;;2.27;;
4055;SDS011;2043;52.184;8.690;2023-04-03T03:58:41;5.67;;;2.20;;
4055;SDS011;2043;52.184;8.690;2023-04-03T04:01:08;9.77;;;2.13;;
4055;SDS011;2043;52.184;8.690;2023-04-03T04:03:34;6.73;;;2.37;;
4055;SDS011;2043;52.184;8.690;2023-04-03T04:06:01;7.83;;;2.63;;
4055;SDS011;2043;52.184;8.690;2023-04-03T04:08:28;5.17;;;2.50;;
4055;SDS011;2043;52.184;8.690;2023-04-03T04:10:55;8.97;;;2.40;;
4055;SDS011;2043;52.184;8.690;2023-04-03T04:13:22;9.00;;;2.70;;
4055;SDS011;2043;52.184;8.690;2023-04-03T04:15:49;6.07;;;2.10;;
4055;SDS011;2043;52.184;8.690;2023-04-03T04:18:16;9.03;;;2.53;;
4055;SDS011;2043;52.184;8.690;2023-04-03T04:20:44;8.23;;;2.70;;
4055;SDS011;2043;52.184;8.690;2023-04-03T04:23:12;7.70;;;2.70;;
4055;SDS011;2043;52.184;8.690;2023-04-03T04:25:39;6.40;;;2.63;;
4055;SDS011;2043;52.184;8.690;2023-04-03T04:28:06;7.07;;;2.87;;
4055;SDS011;2043;52.184;8.690;2023-04-03T04:30:33;11.77;;;3.37;;
4055;SDS011;2043;52.184;8.690;2023-04-03T04:33:00;20.07;;;3.60;;
4055;SDS011;2043;52.184;8.690;2023-04-03T04:35:27;8.80;;;3.43;;
4055;SDS011;2043;52.184;8.690;2023-04-03T04:37:55;9.13;;;3.13;;
4055;SDS011;2043;52.184;8.690;2023-04-03T04:40:22;9.87;;;2.83;;
4055;SDS011;2043;52.184;8.690;2023-04-03T04:42:49;9.03;;;3.27;;
4055;SDS011;2043;52.184;8.690;2023-04-03T04:45:16;6.40;;;2.70;;
4055;SDS011;2043;52.184;8.690;2023-04-03T04:47:43;10.37;;;2.90;;
4055;SDS011;2043;52.184;8.690;2023-04-03T04:50:10;13.00;;;2.90;;
4055;SDS011;2043;52.184;8.690;2023-04-03T04:52:38;10.03;;;2.80;;
4055;SDS011;2043;52.184;8.690;2023-04-03T04:55:05;8.80;;;2.70;;
4055;SDS011;2043;52.184;8.690;2023-04-03T04:57:32;18.57;;;3.27;;
4055;SDS011;2043;52.184;8.690;2023-04-03T04:59:59;10.90;;;2.90;;
4055;SDS011;2043;52.184;8.690;2023-04-03T05:02:26;7.67;;;3.10;;
4055;SDS011;2043;52.184;8.690;2023-04-03T05:04:53;11.90;;;3.00;;
4055;SDS011;2043;52.184;8.690;2023-04-03T05:07:21;12.43;;;2.83;;
4055;SDS011;2043;52.184;8.690;2023-04-03T05:09:48;17.87;;;3.07;;
4055;SDS011;2043;52.184;8.690;2023-04-03T05:12:14;9.20;;;3.23;;
4055;SDS011;2043;52.184;8.690;2023-04-03T05:14:42;13.03;;;4.20;;
4055;SDS011;2043;52.184;8.690;2023-04-03T05:17:09;11.03;;;3.10;;
4055;SDS011;2043;52.184;8.690;2023-04-03T05:19:36;12.03;;;4.40;;
4055;SDS011;2043;52.184;8.690;2023-04-03T05:22:03;9.60;;;2.97;;
4055;SDS011;2043;52.184;8.690;2023-04-03T05:24:30;10.43;;;3.00;;
4055;SDS011;2043;52.184;8.690;2023-04-03T05:26:57;9.70;;;3.47;;
4055;SDS011;2043;52.184;8.690;2023-04-03T05:29:24;17.40;;;6.53;;
4055;SDS011;2043;52.184;8.690;2023-04-03T05:31:51;34.37;;;9.23;;
4055;SDS011;2043;52.184;8.690;2023-04-03T05:34:18;32.03;;;9.73;;
4055;SDS011;2043;52.184;8.690;2023-04-03T05:36:45;30.67;;;13.83;;
4055;SDS011;2043;52.184;8.690;2023-04-03T05:39:12;19.07;;;5.50;;
4055;SDS011;2043;52.184;8.690;2023-04-03T05:41:39;11.47;;;4.40;;
4055;SDS011;2043;52.184;8.690;2023-04-03T05:44:06;9.93;;;3.47;;
4055;SDS011;2043;52.184;8.690;2023-04-03T05:46:33;10.73;;;3.87;;
4055;SDS011;2043;52.184;8.690;2023-04-03T05:49:00;13.70;;;4.87;;
4055;SDS011;2043;52.184;8.690;2023-04-03T05:51:29;13.80;;;4.43;;
4055;SDS011;2043;52.184;8.690;2023-04-03T05:54:00;8.83;;;4.20;;
4055;SDS011;2043;52.184;8.690;2023-04-03T05:56:33;12.67;;;6.67;;
4055;SDS011;2043;52.184;8.690;2023-04-03T05:59:00;14.50;;;5.70;;
4055;SDS011;2043;52.184;8.690;2023-04-03T06:01:27;16.80;;;6.13;;
4055;SDS011;2043;52.184;8.690;2023-04-03T06:03:54;14.50;;;5.40;;
4055;SDS011;2043;52.184;8.690;2023-04-03T06:06:22;9.50;;;3.67;;
4055;SDS011;2043;52.184;8.690;2023-04-03T06:08:49;13.83;;;3.93;;
4055;SDS011;2043;52.184;8.690;2023-04-03T06:11:16;12.77;;;3.80;;
4055;SDS011;2043;52.184;8.690;2023-04-03T06:13:43;9.50;;;3.60;;
4055;SDS011;2043;52.184;8.690;2023-04-03T06:16:14;11.17;;;4.10;;
4055;SDS011;2043;52.184;8.690;2023-04-03T06:18:43;16.97;;;4.10;;
4055;SDS011;2043;52.184;8.690;2023-04-03T06:21:10;6.80;;;2.83;;
4055;SDS011;2043;52.184;8.690;2023-04-03T06:23:37;8.33;;;3.40;;
4055;SDS011;2043;52.184;8.690;2023-04-03T06:26:03;6.80;;;2.93;;
4055;SDS011;2043;52.184;8.690;2023-04-03T06:28:31;10.00;;;2.73;;
4055;SDS011;2043;52.184;8.690;2023-04-03T06:30:58;5.80;;;2.40;;
4055;SDS011;2043;52.184;8.690;2023-04-03T06:33:25;8.43;;;2.67;;
4055;SDS011;2043;52.184;8.690;2023-04-03T06:35:56;7.77;;;2.93;;
4055;SDS011;2043;52.184;8.690;2023-04-03T06:38:24;11.63;;;3.30;;
4055;SDS011;2043;52.184;8.690;2023-04-03T06:40:51;13.40;;;3.07;;
4055;SDS011;2043;52.184;8.690;2023-04-03T06:43:18;11.67;;;3.30;;
4055;SDS011;2043;52.184;8.690;2023-04-03T06:45:45;11.80;;;2.93;;
4055;SDS011;2043;52.184;8.690;2023-04-03T06:48:12;13.23;;;3.00;;
4055;SDS011;2043;52.184;8.690;2023-04-03T06:50:39;11.37;;;2.47;;
4055;SDS011;2043;52.184;8.690;2023-04-03T06:53:07;8.07;;;2.70;;
4055;SDS011;2043;52.184;8.690;2023-04-03T06:55:34;10.80;;;2.50;;
4055;SDS011;2043;52.184;8.690;2023-04-03T06:58:02;9.37;;;2.70;;
4055;SDS011;2043;52.184;8.690;2023-04-03T07:00:30;11.30;;;2.83;;
4055;SDS011;2043;52.184;8.690;2023-04-03T07:02:57;9.63;;;3.50;;
4055;SDS011;2043;52.184;8.690;2023-04-03T07:05:24;11.07;;;2.97;;
4055;SDS011;2043;52.184;8.690;2023-04-03T07:07:51;6.30;;;2.57;;
4055;SDS011;2043;52.184;8.690;2023-04-03T07:10:18;7.40;;;2.57;;
4055;SDS011;2043;52.184;8.690;2023-04-03T07:12:45;12.10;;;3.17;;
4055;SDS011;2043;52.184;8.690;2023-04-03T07:15:12;8.60;;;2.80;;
4055;SDS011;2043;52.184;8.690;2023-04-03T07:17:40;8.00;;;2.30;;
4055;SDS011;2043;52.184;8.690;2023-04-03T07:20:07;9.40;;;2.77;;
4055;SDS011;2043;52.184;8.690;2023-04-03T07:22:35;7.73;;;2.23;;
4055;SDS011;2043;52.184;8.690;2023-04-03T07:25:02;15.70;;;3.00;;
4055;SDS011;2043;52.184;8.690;2023-04-03T07:27:29;7.30;;;2.67;;
4055;SDS011;2043;52.184;8.690;2023-04-03T07:29:56;9.53;;;2.90;;
4055;SDS011;2043;52.184;8.690;2023-04-03T07:32:24;13.57;;;2.60;;
4055;SDS011;2043;52.184;8.690;2023-04-03T07:34:51;7.80;;;2.70;;
4055;SDS011;2043;52.184;8.690;2023-04-03T07:37:17;10.33;;;2.97;;
4055;SDS011;2043;52.184;8.690;2023-04-03T07:39:44;7.03;;;2.30;;
4055;SDS011;2043;52.184;8.690;2023-04-03T07:42:11;8.20;;;2.43;;
4055;SDS011;2043;52.184;8.690;2023-04-03T07:44:38;7.80;;;2.60;;
4055;SDS011;2043;52.184;8.690;2023-04-03T07:47:05;7.67;;;2.57;;
4055;SDS011;2043;52.184;8.690;2023-04-03T07:49:32;9.67;;;2.70;;
4055;SDS011;2043;52.184;8.690;2023-04-03T07:51:59;10.03;;;2.40;;
4055;SDS011;2043;52.184;8.690;2023-04-03T07:54:26;7.93;;;2.37;;
4055;SDS011;2043;52.184;8.690;2023-04-03T07:56:52;6.47;;;2.57;;
4055;SDS011;2043;52.184;8.690;2023-04-03T07:59:19;6.37;;;2.27;;
4055;SDS011;2043;52.184;8.690;2023-04-03T08:01:46;8.00;;;2.73;;
4055;SDS011;2043;52.184;8.690;2023-04-03T08:04:13;6.07;;;2.37;;
4055;SDS011;2043;52.184;8.690;2023-04-03T08:06:40;8.63;;;2.53;;
4055;SDS011;2043;52.184;8.690;2023-04-03T08:09:13;10.77;;;3.40;;
4055;SDS011;2043;52.184;8.690;2023-04-03T08:11:43;6.63;;;2.57;;
4055;SDS011;2043;52.184;8.690;2023-04-03T08:14:10;11.23;;;2.60;;
4055;SDS011;2043;52.184;8.690;2023-04-03T08:16:43;6.90;;;2.33;;
4055;SDS011;2043;52.184;8.690;2023-04-03T08:19:11;9.17;;;2.53;;
4055;SDS011;2043;52.184;8.690;2023-04-03T08:21:50;6.60;;;2.47;;
4055;SDS011;2043;52.184;8.690;2023-04-03T08:24:17;5.60;;;2.37;;
4055;SDS011;2043;52.184;8.690;2023-04-03T08:26:44;10.10;;;2.33;;
4055;SDS011;2043;52.184;8.690;2023-04-03T08:29:11;4.87;;;2.33;;
4055;SDS011;2043;52.184;8.690;2023-04-03T08:31:39;9.33;;;2.20;;
4055;SDS011;2043;52.184;8.690;2023-04-03T08:34:06;11.03;;;2.80;;
4055;SDS011;2043;52.184;8.690;2023-04-03T08:36:33;4.90;;;2.27;;
4055;SDS011;2043;52.184;8.690;2023-04-03T08:39:00;8.60;;;2.70;;
4055;SDS011;2043;52.184;8.690;2023-04-03T08:50:05;7.83;;;2.50;;
4055;SDS011;2043;52.184;8.690;2023-04-03T08:52:53;6.30;;;2.00;;
4055;SDS011;2043;52.184;8.690;2023-04-03T08:58:21;8.10;;;2.30;;
4055;SDS011;2043;52.184;8.690;2023-04-03T09:03:38;6.73;;;2.50;;
4055;SDS011;2043;52.184;8.690;2023-04-03T09:06:10;8.37;;;1.90;;
4055;SDS011;2043;52.184;8.690;2023-04-03T09:12:09;4.97;;;1.60;;
4055;SDS011;2043;52.184;8.690;2023-04-03T09:20:10;4.60;;;1.60;;
4055;SDS011;2043;52.184;8.690;2023-04-03T09:22:46;4.33;;;1.63;;
4055;SDS011;2043;52.184;8.690;2023-04-03T09:25:22;8.90;;;2.10;;
4055;SDS011;2043;52.184;8.690;2023-04-03T09:27:53;7.40;;;2.80;;
4055;SDS011;2043;52.184;8.690;2023-04-03T09:30:21;6.73;;;2.27;;
4055;SDS011;2043;52.184;8.690;2023-04-03T09:32:51;7.13;;;2.13;;
4055;SDS011;2043;52.184;8.690;2023-04-03T09:40:40;11.63;;;2.60;;
4055;SDS011;2043;52.184;8.690;2023-04-03T09:45:47;8.83;;;2.10;;
4055;SDS011;2043;52.184;8.690;2023-04-03T09:48:17;8.77;;;2.10;;
4055;SDS011;2043;52.184;8.690;2023-04-03T09:50:59;5.20;;;2.17;;
4055;SDS011;2043;52.184;8.690;2023-04-03T09:53:31;4.57;;;1.77;;
4055;SDS011;2043;52.184;8.690;2023-04-03T09:58:45;6.17;;;2.07;;
4055;SDS011;2043;52.184;8.690;2023-04-03T10:01:21;8.37;;;2.00;;
4055;SDS011;2043;52.184;8.690;2023-04-03T10:04:13;5.10;;;1.80;;
4055;SDS011;2043;52.184;8.690;2023-04-03T10:06:43;7.90;;;2.87;;
4055;SDS011;2043;52.184;8.690;2023-04-03T10:09:28;4.10;;;1.77;;
4055;SDS011;2043;52.184;8.690;2023-04-03T10:14:32;4.60;;;1.77;;
4055;SDS011;2043;52.184;8.690;2023-04-03T10:23:33;6.93;;;2.03;;
4055;SDS011;2043;52.184;8.690;2023-04-03T10:32:08;9.03;;;3.00;;
4055;SDS011;2043;52.184;8.690;2023-04-03T10:34:22;5.40;;;2.20;;
4055;SDS011;2043;52.184;8.690;2023-04-03T10:42:13;5.67;;;1.70;;
4055;SDS011;2043;52.184;8.690;2023-04-03T10:47:24;6.87;;;2.27;;
4055;SDS011;2043;52.184;8.690;2023-04-03T10:50:03;7.73;;;2.33;;
4055;SDS011;2043;52.184;8.690;2023-04-03T10:52:55;6.53;;;2.07;;
4055;SDS011;2043;52.184;8.690;2023-04-03T10:55:29;10.30;;;2.33;;
4055;SDS011;2043;52.184;8.690;2023-04-03T10:57:58;5.60;;;2.10;;
4055;SDS011;2043;52.184;8.690;2023-04-03T11:03:05;7.20;;;2.40;;
4055;SDS011;2043;52.184;8.690;2023-04-03T11:05:50;7.40;;;2.70;;
4055;SDS011;2043;52.184;8.690;2023-04-03T11:10:53;6.83;;;2.57;;
4055;SDS011;2043;52.184;8.690;2023-04-03T11:13:34;7.70;;;2.60;;
4055;SDS011;2043;52.184;8.690;2023-04-03T11:16:28;7.17;;;2.67;;
4055;SDS011;2043;52.184;8.690;2023-04-03T11:19:42;8.53;;;2.53;;
4055;SDS011;2043;52.184;8.690;2023-04-03T11:24:43;6.60;;;3.10;;
4055;SDS011;2043;52.184;8.690;2023-04-03T11:27:18;7.97;;;2.53;;
4055;SDS011;2043;52.184;8.690;2023-04-03T11:29:49;5.87;;;2.40;;
4055;SDS011;2043;52.184;8.690;2023-04-03T11:33:21;8.63;;;2.00;;
4055;SDS011;2043;52.184;8.690;2023-04-03T11:35:31;5.33;;;2.13;;
4055;SDS011;2043;52.184;8.690;2023-04-03T11:38:00;6.60;;;2.40;;
4055;SDS011;2043;52.184;8.690;2023-04-03T11:40:32;6.93;;;2.60;;
4055;SDS011;2043;52.184;8.690;2023-04-03T11:43:18;8.93;;;2.70;;
4055;SDS011;2043;52.184;8.690;2023-04-03T11:46:01;5.40;;;2.20;;
4055;SDS011;2043;52.184;8.690;2023-04-03T11:51:01;9.83;;;2.83;;
4055;SDS011;2043;52.184;8.690;2023-04-03T11:53:30;9.60;;;3.20;;
4055;SDS011;2043;52.184;8.690;2023-04-03T11:55:59;8.23;;;2.63;;
4055;SDS011;2043;52.184;8.690;2023-04-03T11:58:31;9.63;;;3.37;;
4055;SDS011;2043;52.184;8.690;2023-04-03T12:01:06;7.13;;;2.70;;
4055;SDS011;2043;52.184;8.690;2023-04-03T12:18:53;7.97;;;2.40;;
4055;SDS011;2043;52.184;8.690;2023-04-03T12:32:10;9.57;;;1.50;;
4055;SDS011;2043;52.184;8.690;2023-04-03T12:34:48;7.13;;;2.53;;
4055;SDS011;2043;52.184;8.690;2023-04-03T12:48:32;5.63;;;2.20;;
4055;SDS011;2043;52.184;8.690;2023-04-03T12:51:05;5.10;;;2.10;;
4055;SDS011;2043;52.184;8.690;2023-04-03T12:53:33;10.03;;;2.10;;
4055;SDS011;2043;52.184;8.690;2023-04-03T12:56:47;7.00;;;2.07;;
4055;SDS011;2043;52.184;8.690;2023-04-03T12:59:18;6.17;;;1.93;;
4055;SDS011;2043;52.184;8.690;2023-04-03T13:01:57;6.80;;;2.10;;
4055;SDS011;2043;52.184;8.690;2023-04-03T13:04:26;7.63;;;2.30;;
4055;SDS011;2043;52.184;8.690;2023-04-03T13:06:55;6.10;;;2.10;;
4055;SDS011;2043;52.184;8.690;2023-04-03T13:12:03;4.53;;;1.80;;
4055;SDS011;2043;52.184;8.690;2023-04-03T13:14:36;7.33;;;1.90;;
4055;SDS011;2043;52.184;8.690;2023-04-03T13:17:11;6.10;;;2.30;;
4055;SDS011;2043;52.184;8.690;2023-04-03T13:19:41;4.80;;;1.53;;
4055;SDS011;2043;52.184;8.690;2023-04-03T13:22:23;4.40;;;2.80;;
4055;SDS011;2043;52.184;8.690;2023-04-03T13:25:06;5.73;;;1.80;;
4055;SDS011;2043;52.184;8.690;2023-04-03T13:27:35;3.83;;;1.83;;
4055;SDS011;2043;52.184;8.690;2023-04-03T13:30:02;3.70;;;1.83;;
4055;SDS011;2043;52.184;8.690;2023-04-03T13:32:30;6.57;;;1.83;;
4055;SDS011;2043;52.184;8.690;2023-04-03T13:34:58;4.77;;;2.00;;
4055;SDS011;2043;52.184;8.690;2023-04-03T13:37:53;3.77;;;1.83;;
4055;SDS011;2043;52.184;8.690;2023-04-03T13:40:21;3.97;;;1.83;;
4055;SDS011;2043;52.184;8.690;2023-04-03T13:42:58;6.40;;;2.10;;
4055;SDS011;2043;52.184;8.690;2023-04-03T13:45:33;5.37;;;1.63;;
4055;SDS011;2043;52.184;8.690;2023-04-03T13:50:51;10.90;;;1.80;;
4055;SDS011;2043;52.184;8.690;2023-04-03T13:53:24;4.83;;;1.67;;
4055;SDS011;2043;52.184;8.690;2023-04-03T13:55:54;2.90;;;1.60;;
4055;SDS011;2043;52.184;8.690;2023-04-03T13:58:32;6.60;;;2.20;;
4055;SDS011;2043;52.184;8.690;2023-04-03T14:01:19;5.33;;;1.77;;
4055;SDS011;2043;52.184;8.690;2023-04-03T14:03:58;7.00;;;1.60;;
4055;SDS011;2043;52.184;8.690;2023-04-03T14:06:27;4.70;;;1.97;;
4055;SDS011;2043;52.184;8.690;2023-04-03T14:08:55;4.07;;;1.73;;
4055;SDS011;2043;52.184;8.690;2023-04-03T14:11:24;5.97;;;2.17;;
4055;SDS011;2043;52.184;8.690;2023-04-03T14:13:55;7.47;;;1.97;;
4055;SDS011;2043;52.184;8.690;2023-04-03T14:16:28;3.80;;;1.60;;
4055;SDS011;2043;52.184;8.690;2023-04-03T14:18:58;6.70;;;2.03;;
4055;SDS011;2043;52.184;8.690;2023-04-03T14:21:25;4.57;;;2.20;;
4055;SDS011;2043;52.184;8.690;2023-04-03T14:23:52;7.03;;;2.43;;
4055;SDS011;2043;52.184;8.690;2023-04-03T14:26:20;4.20;;;1.90;;
4055;SDS011;2043;52.184;8.690;2023-04-03T14:28:51;7.07;;;2.50;;
4055;SDS011;2043;52.184;8.690;2023-04-03T14:31:20;6.93;;;2.40;;
4055;SDS011;2043;52.184;8.690;2023-04-03T14:33:47;4.40;;;1.90;;
4055;SDS011;2043;52.184;8.690;2023-04-03T14:36:15;9.47;;;2.10;;
4055;SDS011;2043;52.184;8.690;2023-04-03T14:38:43;5.80;;;1.70;;
4055;SDS011;2043;52.184;8.690;2023-04-03T14:41:12;5.63;;;2.37;;
4055;SDS011;2043;52.184;8.690;2023-04-03T14:43:43;5.30;;;2.50;;
4055;SDS011;2043;52.184;8.690;2023-04-03T14:46:12;7.50;;;2.50;;
4055;SDS011;2043;52.184;8.690;2023-04-03T14:48:49;8.00;;;2.53;;
4055;SDS011;2043;52.184;8.690;2023-04-03T14:51:17;6.73;;;2.07;;
4055;SDS011;2043;52.184;8.690;2023-04-03T14:53:44;5.73;;;2.27;;
4055;SDS011;2043;52.184;8.690;2023-04-03T14:56:24;5.40;;;2.03;;
4055;SDS011;2043;52.184;8.690;2023-04-03T14:58:57;5.87;;;2.60;;
4055;SDS011;2043;52.184;8.690;2023-04-03T15:01:28;5.00;;;2.00;;
4055;SDS011;2043;52.184;8.690;2023-04-03T15:03:55;5.33;;;1.93;;
4055;SDS011;2043;52.184;8.690;2023-04-03T15:06:22;10.53;;;2.40;;
4055;SDS011;2043;52.184;8.690;2023-04-03T15:08:49;5.00;;;2.00;;
4055;SDS011;2043;52.184;8.690;2023-04-03T15:11:16;4.90;;;1.83;;
4055;SDS011;2043;52.184;8.690;2023-04-03T15:13:43;4.53;;;1.93;;
4055;SDS011;2043;52.184;8.690;2023-04-03T15:16:12;3.93;;;2.00;;
4055;SDS011;2043;52.184;8.690;2023-04-03T15:18:44;4.93;;;2.10;;
4055;SDS011;2043;52.184;8.690;2023-04-03T15:21:12;5.00;;;2.00;;
4055;SDS011;2043;52.184;8.690;2023-04-03T15:23:40;6.80;;;2.07;;
4055;SDS011;2043;52.184;8.690;2023-04-03T15:26:08;4.00;;;1.77;;
4055;SDS011;2043;52.184;8.690;2023-04-03T15:28:36;4.47;;;1.90;;
4055;SDS011;2043;52.184;8.690;2023-04-03T15:31:05;5.63;;;1.87;;
4055;SDS011;2043;52.184;8.690;2023-04-03T15:33:33;4.00;;;1.57;;
4055;SDS011;2043;52.184;8.690;2023-04-03T15:36:00;5.40;;;2.40;;
4055;SDS011;2043;52.184;8.690;2023-04-03T15:38:37;7.07;;;2.50;;
4055;SDS011;2043;52.184;8.690;2023-04-03T15:41:04;5.83;;;2.20;;
4055;SDS011;2043;52.184;8.690;2023-04-03T15:43:31;5.20;;;2.00;;
4055;SDS011;2043;52.184;8.690;2023-04-03T15:45:59;6.10;;;2.00;;
4055;SDS011;2043;52.184;8.690;2023-04-03T15:48:27;7.87;;;2.10;;
4055;SDS011;2043;52.184;8.690;2023-04-03T15:50:55;2.80;;;1.60;;
4055;SDS011;2043;52.184;8.690;2023-04-03T15:53:24;8.90;;;2.13;;
4055;SDS011;2043;52.184;8.690;2023-04-03T15:55:51;4.80;;;2.10;;
4055;SDS011;2043;52.184;8.690;2023-04-03T15:58:17;4.83;;;2.27;;
4055;SDS011;2043;52.184;8.690;2023-04-03T16:00:44;4.40;;;1.90;;
4055;SDS011;2043;52.184;8.690;2023-04-03T16:03:12;5.93;;;2.17;;
4055;SDS011;2043;52.184;8.690;2023-04-03T16:05:43;5.03;;;2.87;;
4055;SDS011;2043;52.184;8.690;2023-04-03T16:08:10;7.87;;;2.83;;
4055;SDS011;2043;52.184;8.690;2023-04-03T16:10:37;5.70;;;2.50;;
4055;SDS011;2043;52.184;8.690;2023-04-03T16:13:05;4.10;;;1.80;;
4055;SDS011;2043;52.184;8.690;2023-04-03T16:15:33;4.67;;;2.03;;
4055;SDS011;2043;52.184;8.690;2023-04-03T16:18:01;8.80;;;2.40;;
4055;SDS011;2043;52.184;8.690;2023-04-03T16:20:29;8.00;;;2.30;;
4055;SDS011;2043;52.184;8.690;2023-04-03T16:22:57;9.37;;;1.80;;
4055;SDS011;2043;52.184;8.690;2023-04-03T16:25:26;6.63;;;1.80;;
4055;SDS011;2043;52.184;8.690;2023-04-03T16:27:53;9.37;;;2.10;;
4055;SDS011;2043;52.184;8.690;2023-04-03T16:30:20;5.50;;;2.43;;
4055;SDS011;2043;52.184;8.690;2023-04-03T16:32:46;6.30;;;2.10;;
4055;SDS011;2043;52.184;8.690;2023-04-03T16:35:13;6.63;;;1.80;;
4055;SDS011;2043;52.184;8.690;2023-04-03T16:37:40;5.63;;;2.30;;
4055;SDS011;2043;52.184;8.690;2023-04-03T16:40:07;4.43;;;1.90;;
4055;SDS011;2043;52.184;8.690;2023-04-03T16:42:34;4.63;;;1.77;;
4055;SDS011;2043;52.184;8.690;2023-04-03T16:45:03;5.00;;;2.20;;
4055;SDS011;2043;52.184;8.690;2023-04-03T16:47:32;7.93;;;2.53;;
4055;SDS011;2043;52.184;8.690;2023-04-03T16:49:59;7.33;;;2.57;;
4055;SDS011;2043;52.184;8.690;2023-04-03T16:52:26;8.10;;;3.30;;
4055;SDS011;2043;52.184;8.690;2023-04-03T16:54:53;16.07;;;3.13;;
4055;SDS011;2043;52.184;8.690;2023-04-03T16:57:22;7.30;;;2.57;;
4055;SDS011;2043;52.184;8.690;2023-04-03T16:59:51;3.33;;;1.90;;
4055;SDS011;2043;52.184;8.690;2023-04-03T17:02:19;6.23;;;2.70;;
4055;SDS011;2043;52.184;8.690;2023-04-03T17:04:47;5.70;;;2.47;;
4055;SDS011;2043;52.184;8.690;2023-04-03T17:07:17;4.13;;;2.13;;
4055;SDS011;2043;52.184;8.690;2023-04-03T17:09:48;5.23;;;2.57;;
4055;SDS011;2043;52.184;8.690;2023-04-03T17:12:15;5.97;;;2.50;;
4055;SDS011;2043;52.184;8.690;2023-04-03T17:14:42;5.90;;;2.50;;
4055;SDS011;2043;52.184;8.690;2023-04-03T17:17:09;4.90;;;2.50;;
4055;SDS011;2043;52.184;8.690;2023-04-03T17:19:37;5.87;;;2.67;;